Time;durP1;ratioP1;P1;durP2;ratioP2;P2;SDS_P1;SDS_P2;PMS_P1;PMS_P2;Temp;Humidity;BMP_temperature;BMP_pressure;BME280_temperature;BME280_humidity;BME280_pressure;Samples;Min_cycle;Max_cycle;Signal;HPM_P1;HPM_P2
2022/03/02 00:01:14;;;;;;;36.15;22.35;;;;;;;-0.12;79.46;96410.66;6300198;22;20007;-60
2022/03/02 00:03:41;;;;;;;30.27;20.70;;;;;;;-0.17;79.40;96410.81;6300005;22;19999;-60
2022/03/02 00:06:06;;;;;;;30.13;19.70;;;;;;;-0.09;77.81;96410.53;6300170;22;20006;-61
2022/03/02 00:08:32;;;;;;;32.03;20.05;;;;;;;-0.14;79.07;96418.47;6300011;22;20003;-61
2022/03/02 00:10:57;;;;;;;27.80;19.85;;;;;;;-0.21;79.70;96409.25;6238122;23;20012;-61
2022/03/02 00:13:22;;;;;;;28.98;19.55;;;;;;;-0.30;80.64;96413.88;6238572;23;20004;-61
2022/03/02 00:15:49;;;;;;;31.45;20.23;;;;;;;-0.31;80.55;96407.03;6238612;22;20032;-60
2022/03/02 00:18:14;;;;;;;28.90;18.77;;;;;;;-0.32;80.33;96415.69;6238599;23;20008;-61
2022/03/02 00:20:40;;;;;;;28.88;18.17;;;;;;;-0.34;81.11;96404.53;6238804;22;20008;-61
2022/03/02 00:23:06;;;;;;;29.27;19.02;;;;;;;-0.34;80.77;96393.34;6238736;22;20425;-61
2022/03/02 00:25:31;;;;;;;25.40;18.02;;;;;;;-0.27;79.37;96396.56;6238823;22;20004;-61
2022/03/02 00:27:57;;;;;;;29.27;19.73;;;;;;;-0.27;79.40;96405.16;6238621;23;20004;-61
2022/03/02 00:30:23;;;;;;;33.25;20.92;;;;;;;-0.27;79.56;96399.13;6239471;22;20095;-60
2022/03/02 00:32:49;;;;;;;42.63;25.75;;;;;;;-0.26;79.89;96393.06;6239458;22;20000;-61
2022/03/02 00:35:14;;;;;;;43.78;22.52;;;;;;;-0.30;80.64;96387.16;6239758;22;20008;-61
2022/03/02 00:37:40;;;;;;;38.58;23.25;;;;;;;-0.35;80.03;96391.66;6239603;22;20014;-61
2022/03/02 00:40:06;;;;;;;37.00;20.85;;;;;;;-0.40;80.48;96388.41;6239960;23;20004;-61
2022/03/02 00:42:31;;;;;;;41.45;23.13;;;;;;;-0.47;80.51;96388.63;6239696;22;20012;-61
2022/03/02 00:44:57;;;;;;;33.92;22.38;;;;;;;-0.48;80.75;96399.03;6239605;23;20008;-60
2022/03/02 00:47:23;;;;;;;50.30;25.90;;;;;;;-0.56;82.10;96396.72;6263691;22;20012;-61
2022/03/02 00:49:49;;;;;;;53.88;26.33;;;;;;;-0.58;81.20;96391.59;6400384;22;20676;-61
2022/03/02 00:52:14;;;;;;;44.17;24.10;;;;;;;-0.53;81.13;96386.28;6400137;22;20004;-61
2022/03/02 00:54:40;;;;;;;34.33;20.95;;;;;;;-0.48;80.57;96388.69;6400739;22;19997;-60
2022/03/02 00:57:06;;;;;;;30.48;19.65;;;;;;;-0.58;81.29;96383.00;6400919;22;20115;-60
2022/03/02 00:59:31;;;;;;;37.08;22.52;;;;;;;-0.61;81.51;96385.72;6400509;22;20025;-60
2022/03/02 01:01:56;;;;;;;28.42;20.45;;;;;;;-0.59;81.03;96381.34;6400916;22;20329;-61
2022/03/02 01:04:22;;;;;;;25.88;18.73;;;;;;;-0.61;80.89;96383.97;6400562;22;20485;-60
2022/03/02 01:06:47;;;;;;;31.08;18.90;;;;;;;-0.62;81.87;96382.28;6372264;22;20016;-60
2022/03/02 01:09:13;;;;;;;26.95;17.20;;;;;;;-0.70;81.90;96388.63;6409906;22;20048;-60
2022/03/02 01:11:39;;;;;;;29.70;17.55;;;;;;;-0.75;82.49;96383.63;6432866;22;20498;-61
2022/03/02 01:14:04;;;;;;;22.52;15.38;;;;;;;-0.77;82.49;96381.09;6432750;22;19997;-60
2022/03/02 01:16:30;;;;;;;17.45;12.77;;;;;;;-0.74;81.88;96375.81;6432961;22;20009;-61
2022/03/02 01:18:56;;;;;;;19.55;13.20;;;;;;;-0.73;81.49;96374.09;6432593;22;20048;-60
2022/03/02 01:21:21;;;;;;;19.05;13.48;;;;;;;-0.74;81.70;96380.16;6432876;22;20036;-60
2022/03/02 01:23:46;;;;;;;15.90;12.95;;;;;;;-0.76;82.46;96379.38;6432084;22;19993;-61
2022/03/02 01:26:12;;;;;;;19.48;13.20;;;;;;;-0.75;82.21;96378.47;6335396;22;20053;-61
2022/03/02 01:28:38;;;;;;;19.55;13.25;;;;;;;-0.75;83.35;96381.06;6300690;22;20082;-61
2022/03/02 01:31:03;;;;;;;18.38;13.32;;;;;;;-0.89;83.50;96377.22;6300946;22;20031;-61
2022/03/02 01:33:28;;;;;;;15.32;12.60;;;;;;;-0.89;83.30;96376.34;6300958;22;20019;-61
2022/03/02 01:35:54;;;;;;;20.05;11.95;;;;;;;-0.87;82.90;96380.59;6300674;22;19999;-61
2022/03/02 01:38:20;;;;;;;15.25;12.05;;;;;;;-0.74;81.78;96380.16;6300943;22;20031;-61
2022/03/02 01:40:46;;;;;;;15.52;12.95;;;;;;;-0.82;82.32;96374.41;6300840;22;20044;-60
2022/03/02 01:43:12;;;;;;;16.83;12.63;;;;;;;-0.76;83.97;96376.78;6301207;22;20023;-61
2022/03/02 01:45:38;;;;;;;15.88;12.02;;;;;;;-0.80;84.14;96378.63;6300866;22;20006;-61
2022/03/02 01:48:04;;;;;;;15.88;12.10;;;;;;;-0.87;83.89;96374.59;6300782;22;20003;-61
2022/03/02 01:50:31;;;;;;;14.02;12.10;;;;;;;-0.95;84.36;96379.16;6300592;22;20335;-61
2022/03/02 01:52:56;;;;;;;15.95;12.88;;;;;;;-0.99;84.72;96377.59;6301314;22;20446;-60
2022/03/02 01:55:23;;;;;;;17.02;12.25;;;;;;;-1.00;85.13;96374.16;6300886;22;20007;-61
2022/03/02 01:57:49;;;;;;;13.68;11.13;;;;;;;-1.02;84.78;96374.22;6300612;22;20007;-61
2022/03/02 02:00:20;;;;;;;13.32;11.93;;;;;;;-1.03;83.94;96371.69;6300695;22;20007;-61
2022/03/02 02:02:48;;;;;;;16.25;13.35;;;;;;;-1.04;84.51;96380.31;6300910;22;20007;-60
2022/03/02 02:05:14;;;;;;;13.75;10.80;;;;;;;-1.07;84.17;96376.13;6273402;22;20007;-61
2022/03/02 02:07:40;;;;;;;14.48;12.05;;;;;;;-1.09;84.39;96372.75;6300982;22;20023;-61
2022/03/02 02:10:06;;;;;;;14.60;12.40;;;;;;;-1.11;84.90;96374.53;6300526;22;20039;-61
2022/03/02 02:12:32;;;;;;;15.05;12.50;;;;;;;-1.19;85.46;96379.13;6300201;22;20031;-60
2022/03/02 02:14:59;;;;;;;14.73;12.27;;;;;;;-1.13;84.13;96371.16;6299979;22;20035;-61
2022/03/02 02:17:25;;;;;;;19.52;12.93;;;;;;;-1.16;85.11;96373.84;6300697;22;20324;-61
2022/03/02 02:19:50;;;;;;;18.95;11.55;;;;;;;-1.13;84.46;96363.41;6300598;22;20059;-61
2022/03/02 02:22:16;;;;;;;13.95;11.85;;;;;;;-1.19;85.23;96358.44;6300879;22;19999;-60
2022/03/02 02:24:41;;;;;;;15.43;10.90;;;;;;;-1.23;85.31;96364.63;6300464;22;20007;-60
2022/03/02 02:27:07;;;;;;;12.77;11.43;;;;;;;-1.22;84.87;96361.97;6300632;22;20052;-61
2022/03/02 02:29:34;;;;;;;14.57;11.73;;;;;;;-1.18;84.62;96354.97;6300586;22;20071;-61
2022/03/02 02:31:59;;;;;;;14.25;12.10;;;;;;;-1.19;84.80;96361.03;6300655;22;20003;-60
2022/03/02 02:34:25;;;;;;;15.75;11.80;;;;;;;-1.23;84.36;96359.47;6300402;22;20039;-60
2022/03/02 02:36:51;;;;;;;15.00;11.20;;;;;;;-1.23;85.21;96357.69;6300321;22;20350;-60
2022/03/02 02:39:17;;;;;;;13.65;12.23;;;;;;;-1.26;85.50;96344.06;6300401;22;20027;-61
2022/03/02 02:41:42;;;;;;;14.50;11.82;;;;;;;-1.29;84.66;96355.34;6300379;22;20026;-61
2022/03/02 02:44:08;;;;;;;16.23;11.55;;;;;;;-1.31;85.61;96354.56;6300667;22;20074;-60
2022/03/02 02:46:34;;;;;;;15.50;12.05;;;;;;;-1.33;85.06;96352.03;6300643;22;20006;-61
2022/03/02 02:48:59;;;;;;;12.98;11.43;;;;;;;-1.35;85.46;96353.81;6300578;22;20008;-60
2022/03/02 02:51:25;;;;;;;14.57;11.60;;;;;;;-1.33;84.05;96349.47;6300560;22;19999;-60
2022/03/02 02:53:50;;;;;;;15.30;11.05;;;;;;;-1.31;84.25;96351.97;6300347;22;20003;-61
2022/03/02 02:56:16;;;;;;;11.93;10.68;;;;;;;-1.25;84.36;96350.91;6299775;22;20410;-60
2022/03/02 02:58:41;;;;;;;17.55;11.75;;;;;;;-1.34;84.61;96352.91;6300290;22;20015;-60
2022/03/02 03:01:06;;;;;;;10.90;9.60;;;;;;;-1.42;84.87;96354.91;6300712;22;20058;-60
2022/03/02 03:03:32;;;;;;;13.82;10.65;;;;;;;-1.39;84.66;96361.72;6300565;22;20498;-61
2022/03/02 03:05:58;;;;;;;13.15;10.65;;;;;;;-1.41;84.81;96356.59;6300181;22;20010;-60
2022/03/02 03:08:23;;;;;;;15.75;11.73;;;;;;;-1.41;85.21;96355.78;6300341;22;20038;-60
2022/03/02 03:10:49;;;;;;;12.35;11.05;;;;;;;-1.43;85.59;96360.16;6300001;22;20023;-60
2022/03/02 03:13:15;;;;;;;14.45;11.10;;;;;;;-1.44;84.66;96351.53;6300372;22;20461;-61
2022/03/02 03:15:41;;;;;;;14.10;10.73;;;;;;;-1.45;84.76;96353.28;6300227;22;20347;-60
2022/03/02 03:18:07;;;;;;;12.90;11.40;;;;;;;-1.41;85.25;96351.44;6300085;22;20004;-60
2022/03/02 03:20:34;;;;;;;13.43;11.10;;;;;;;-1.48;85.86;96343.06;6300608;22;20010;-60
2022/03/02 03:23:00;;;;;;;12.40;9.13;;;;;;;-1.51;85.28;96334.59;6300222;22;20100;-60
2022/03/02 03:25:26;;;;;;;13.85;10.55;;;;;;;-1.51;84.92;96334.59;6272951;22;20033;-60
2022/03/02 03:27:52;;;;;;;14.38;10.45;;;;;;;-1.51;84.89;96335.41;6301511;22;20014;-61
2022/03/02 03:30:20;;;;;;;11.15;9.38;;;;;;;-1.54;85.02;96335.53;6273919;22;20359;-60
2022/03/02 03:32:46;;;;;;;14.55;10.15;;;;;;;-1.60;85.39;96335.72;6301198;22;20339;-60
2022/03/02 03:35:14;;;;;;;12.35;10.07;;;;;;;-1.62;84.81;96330.59;6301376;22;20497;-61
2022/03/02 03:37:41;;;;;;;14.23;10.40;;;;;;;-1.64;85.92;96329.81;6301310;22;20007;-60
2022/03/02 03:40:09;;;;;;;11.88;10.00;;;;;;;-1.64;85.51;96327.22;6301380;22;20007;-60
2022/03/02 03:42:35;;;;;;;12.00;9.20;;;;;;;-1.56;85.42;96326.13;6301324;22;20071;-61
2022/03/02 03:45:01;;;;;;;12.18;10.00;;;;;;;-1.58;84.60;96328.78;6301558;22;20102;-60
2022/03/02 03:47:26;;;;;;;12.00;9.70;;;;;;;-1.59;84.80;96325.34;6301174;22;20010;-61
2022/03/02 03:49:51;;;;;;;12.05;10.32;;;;;;;-1.62;85.29;96324.63;6301375;22;20454;-60
2022/03/02 03:52:17;;;;;;;11.85;8.98;;;;;;;-1.66;86.00;96321.28;6301678;22;20006;-60
2022/03/02 03:54:42;;;;;;;10.93;9.57;;;;;;;-1.72;85.71;96326.66;6300931;22;19999;-60
2022/03/02 03:57:08;;;;;;;12.30;9.45;;;;;;;-1.75;85.79;96319.03;6301195;22;20518;-60
2022/03/02 03:59:33;;;;;;;12.25;10.02;;;;;;;-1.75;86.17;96322.44;6301338;22;20083;-60
2022/03/02 04:01:59;;;;;;;10.75;9.57;;;;;;;-1.78;86.62;96321.69;6301062;22;20008;-60
2022/03/02 04:04:25;;;;;;;10.13;8.80;;;;;;;-1.73;85.68;96320.63;6301477;22;20006;-60
2022/03/02 04:06:51;;;;;;;16.40;9.55;;;;;;;-1.66;85.07;96323.00;6301341;22;20030;-60
2022/03/02 04:09:16;;;;;;;10.30;9.10;;;;;;;-1.62;84.99;96304.78;6301420;22;20135;-59
2022/03/02 04:11:41;;;;;;;10.68;9.40;;;;;;;-1.67;85.61;96311.00;6301407;22;20435;-60
2022/03/02 04:14:08;;;;;;;11.07;9.95;;;;;;;-1.72;85.55;96300.84;6301174;22;20068;-60
2022/03/02 04:16:34;;;;;;;10.77;9.70;;;;;;;-1.73;86.77;96299.97;6301389;22;20007;-60
2022/03/02 04:18:59;;;;;;;10.55;9.45;;;;;;;-1.70;86.49;96303.34;6300942;22;20003;-61
2022/03/02 04:21:24;;;;;;;10.27;9.25;;;;;;;-1.56;84.46;96296.00;6301162;22;20010;-60
2022/03/02 04:23:50;;;;;;;10.95;9.63;;;;;;;-1.62;84.84;96302.19;6301180;22;20081;-60
2022/03/02 04:26:15;;;;;;;11.75;10.27;;;;;;;-1.61;86.03;96301.31;6301022;22;20011;-60
2022/03/02 04:28:41;;;;;;;10.57;9.57;;;;;;;-1.63;86.15;96302.28;6273929;22;20070;-60
2022/03/02 04:31:07;;;;;;;10.20;9.20;;;;;;;-1.64;85.76;96308.34;6301110;22;20077;-60
2022/03/02 04:33:32;;;;;;;10.27;9.18;;;;;;;-1.64;85.54;96306.56;6301478;22;20018;-61
2022/03/02 04:35:57;;;;;;;12.45;10.65;;;;;;;-1.67;86.20;96311.00;6301298;22;20007;-60
2022/03/02 04:38:23;;;;;;;11.10;10.02;;;;;;;-1.74;86.83;96316.38;6300886;22;20043;-60
2022/03/02 04:40:48;;;;;;;11.50;10.30;;;;;;;-1.79;86.23;96315.69;6301067;22;20004;-60
2022/03/02 04:43:14;;;;;;;10.60;9.52;;;;;;;-1.80;86.76;96319.16;6301069;22;20008;-60
2022/03/02 04:45:39;;;;;;;13.10;10.48;;;;;;;-1.85;86.59;96315.91;6300577;22;20048;-60
2022/03/02 04:48:05;;;;;;;12.18;11.00;;;;;;;-1.83;87.33;96316.69;6301084;22;20003;-60
2022/03/02 04:50:31;;;;;;;12.90;11.18;;;;;;;-1.81;86.99;96324.38;6301333;22;20498;-61
2022/03/02 04:52:56;;;;;;;13.85;10.38;;;;;;;-1.80;86.47;96324.31;6301142;22;20059;-61
2022/03/02 04:55:22;;;;;;;15.05;11.07;;;;;;;-1.78;86.07;96327.69;6301136;22;20352;-60
2022/03/02 04:57:57;;;;;;;14.90;10.68;;;;;;;-1.76;86.67;96325.09;6301285;22;20392;-60
2022/03/02 05:00:26;;;;;;;12.48;11.23;;;;;;;-1.81;86.40;96332.09;6301188;22;20015;-60
2022/03/02 05:02:52;;;;;;;15.10;11.30;;;;;;;-1.86;86.51;96332.28;6301069;22;20542;-60
2022/03/02 05:05:21;;;;;;;15.38;10.93;;;;;;;-1.91;86.37;96331.56;6301029;22;20355;-60
2022/03/02 05:07:46;;;;;;;13.60;10.88;;;;;;;-1.93;86.19;96328.19;6300903;22;20006;-60
2022/03/02 05:10:13;;;;;;;18.60;10.60;;;;;;;-2.03;87.05;96328.50;6300483;22;20019;-60
2022/03/02 05:12:39;;;;;;;12.18;10.82;;;;;;;-2.04;87.01;96311.31;6300881;22;20014;-60
2022/03/02 05:15:07;;;;;;;13.27;10.95;;;;;;;-2.06;87.37;96315.69;6301009;22;20070;-60
2022/03/02 05:17:33;;;;;;;17.27;12.13;;;;;;;-2.09;87.72;96302.91;6300314;22;20034;-61
2022/03/02 05:19:58;;;;;;;17.13;12.20;;;;;;;-2.06;87.33;96307.97;6300927;22;20006;-59
2022/03/02 05:22:23;;;;;;;14.23;11.75;;;;;;;-2.05;87.34;96296.75;6300967;22;19999;-60
2022/03/02 05:24:49;;;;;;;14.80;13.23;;;;;;;-2.04;86.80;96295.84;6300848;22;20403;-60
2022/03/02 05:27:14;;;;;;;16.02;11.15;;;;;;;-2.07;87.44;96300.25;6301099;22;20051;-60
2022/03/02 05:29:40;;;;;;;20.35;12.07;;;;;;;-2.09;87.30;96297.75;6300846;22;20010;-61
2022/03/02 05:32:05;;;;;;;13.52;11.77;;;;;;;-2.11;87.55;96298.66;6300956;22;20076;-60
2022/03/02 05:34:31;;;;;;;13.82;11.55;;;;;;;-2.15;88.84;96300.50;6300646;22;20443;-60
2022/03/02 05:36:56;;;;;;;16.38;12.60;;;;;;;-2.13;88.16;96301.28;6300796;22;19999;-60
2022/03/02 05:39:23;;;;;;;18.60;12.25;;;;;;;-2.12;87.75;96302.16;6300874;22;20003;-60
2022/03/02 05:41:51;;;;;;;21.60;14.18;;;;;;;-2.12;86.97;96296.97;6300377;22;20011;-60
2022/03/02 05:44:17;;;;;;;75.85;43.05;;;;;;;-2.05;86.31;96293.31;6301004;22;20055;-60
2022/03/02 05:46:43;;;;;;;89.15;55.25;;;;;;;-2.08;86.80;96296.84;6300855;22;20015;-60
2022/03/02 05:49:08;;;;;;;51.55;35.42;;;;;;;-2.11;87.31;96293.50;6300320;22;20011;-60
2022/03/02 05:51:35;;;;;;;24.63;18.25;;;;;;;-1.94;87.47;96296.38;6300695;22;20006;-60
2022/03/02 05:54:03;;;;;;;26.02;18.50;;;;;;;-1.97;87.89;96295.63;6300747;22;20011;-60
2022/03/02 05:56:30;;;;;;;23.50;16.70;;;;;;;-2.04;88.20;96298.44;6301269;22;20078;-60
2022/03/02 05:58:55;;;;;;;29.45;18.58;;;;;;;-2.08;88.41;96304.59;6300355;22;20003;-60
2022/03/02 06:01:21;;;;;;;23.25;16.67;;;;;;;-2.12;88.92;96302.97;6273099;22;20050;-60
2022/03/02 06:03:46;;;;;;;29.27;18.92;;;;;;;-2.13;88.64;96306.44;6300695;22;20003;-60
2022/03/02 06:06:12;;;;;;;20.88;16.92;;;;;;;-2.12;88.19;96302.97;6300734;22;20477;-60
2022/03/02 06:08:38;;;;;;;29.02;19.48;;;;;;;-2.08;88.55;96303.72;6300386;22;20078;-60
2022/03/02 06:11:05;;;;;;;19.80;17.60;;;;;;;-2.04;86.92;96301.00;6300749;22;20010;-60
2022/03/02 06:13:30;;;;;;;22.75;18.05;;;;;;;-2.04;87.65;96301.00;6301137;22;19999;-60
2022/03/02 06:15:59;;;;;;;26.88;19.27;;;;;;;-1.98;87.09;96304.28;6300103;22;19999;-60
2022/03/02 06:18:25;;;;;;;21.98;18.30;;;;;;;-2.00;87.72;96308.66;6300409;22;20011;-60
2022/03/02 06:20:52;;;;;;;27.73;18.35;;;;;;;-2.05;87.70;96312.22;6300973;22;20007;-60
2022/03/02 06:23:19;;;;;;;29.40;18.95;;;;;;;-2.07;87.74;96316.59;6273429;22;20011;-60
2022/03/02 06:25:45;;;;;;;24.58;19.30;;;;;;;-2.06;87.64;96315.69;6300203;22;20003;-60
2022/03/02 06:28:10;;;;;;;26.02;17.92;;;;;;;-2.07;87.69;96321.75;6300456;22;20386;-60
2022/03/02 06:30:36;;;;;;;24.73;19.08;;;;;;;-2.10;87.48;96326.16;6300169;22;20008;-60
2022/03/02 06:33:01;;;;;;;27.20;20.48;;;;;;;-2.10;88.14;96321.00;6300809;22;20579;-60
2022/03/02 06:35:27;;;;;;;28.77;20.10;;;;;;;-2.10;87.19;96327.00;6300915;22;20003;-60
2022/03/02 06:37:52;;;;;;;22.48;18.00;;;;;;;-2.10;87.80;96319.28;6300524;22;20510;-60
2022/03/02 06:40:18;;;;;;;22.27;17.35;;;;;;;-2.10;87.40;96324.44;6300117;22;20462;-60
2022/03/02 06:43:07;;;;;;;28.05;17.90;;;;;;;-2.08;88.25;96329.53;6301020;22;20022;-60
2022/03/02 06:45:54;;;;;;;24.38;17.75;;;;;;;-2.07;87.74;96332.06;6300573;22;20011;-61
2022/03/02 06:48:25;;;;;;;27.17;17.60;;;;;;;-2.04;87.90;96328.53;6273246;22;20011;-60
2022/03/02 06:50:53;;;;;;;23.13;17.15;;;;;;;-2.10;87.58;96334.75;6299430;22;20003;-60
2022/03/02 06:53:33;;;;;;;24.73;17.17;;;;;;;-2.09;88.05;96333.88;6299408;22;20018;-60
2022/03/02 06:56:06;;;;;;;25.13;16.85;;;;;;;-2.09;88.02;96341.59;6299111;22;20038;-60
2022/03/02 06:58:46;;;;;;;31.52;16.02;;;;;;;-1.97;88.19;96347.25;6298873;22;20055;-60
2022/03/02 07:01:13;;;;;;;20.52;15.15;;;;;;;-1.94;88.13;96342.00;6299011;22;20343;-60
2022/03/02 07:03:47;;;;;;;25.85;17.20;;;;;;;-1.91;87.83;96340.16;6299128;22;20014;-60
2022/03/02 07:06:14;;;;;;;19.20;15.95;;;;;;;-1.89;87.31;96346.13;6299115;22;20008;-60
2022/03/02 07:08:48;;;;;;;20.05;16.73;;;;;;;-1.87;87.45;96346.09;6298948;22;20006;-60
2022/03/02 07:11:16;;;;;;;21.17;16.95;;;;;;;-1.83;87.37;96345.09;6299667;22;20003;-61
2022/03/02 07:13:44;;;;;;;28.98;16.88;;;;;;;-1.79;88.27;96341.50;6299959;22;19999;-60
2022/03/02 07:16:11;;;;;;;20.80;17.60;;;;;;;-1.77;87.89;96346.59;6299436;22;20083;-61
2022/03/02 07:18:36;;;;;;;24.40;16.67;;;;;;;-1.78;88.04;96348.34;6299150;22;20007;-60
2022/03/02 07:21:15;;;;;;;22.08;17.77;;;;;;;-1.74;87.38;96355.09;6299535;22;20071;-60
2022/03/02 07:23:54;;;;;;;23.90;15.50;;;;;;;-1.67;87.43;96344.56;6299983;22;20011;-60
2022/03/02 07:26:22;;;;;;;21.55;16.15;;;;;;;-1.66;88.26;96346.25;6297974;22;20003;-60
2022/03/02 07:28:48;;;;;;;23.17;14.82;;;;;;;-1.62;87.90;96347.84;6298979;22;20007;-61
2022/03/02 07:31:14;;;;;;;20.10;15.35;;;;;;;-1.56;88.37;96344.19;6300701;22;20334;-62
2022/03/02 07:33:42;;;;;;;19.88;15.10;;;;;;;-1.52;87.69;96346.63;6300222;22;20034;-61
2022/03/02 07:36:09;;;;;;;23.40;16.65;;;;;;;-1.48;87.63;96343.06;6298562;22;20006;-60
2022/03/02 07:38:35;;;;;;;22.30;16.13;;;;;;;-1.41;88.11;96333.34;6299169;22;20027;-60
2022/03/02 07:41:08;;;;;;;21.30;16.60;;;;;;;-1.31;86.84;96337.31;6298025;22;20022;-60
2022/03/02 07:43:36;;;;;;;18.83;14.82;;;;;;;-1.25;87.58;96332.84;6298731;22;20010;-60
2022/03/02 07:46:04;;;;;;;18.23;15.88;;;;;;;-1.13;86.22;96329.81;6271371;22;20355;-61
2022/03/02 07:48:29;;;;;;;21.25;15.82;;;;;;;-1.01;86.43;96328.50;6298658;22;20000;-60
2022/03/02 07:50:56;;;;;;;25.83;21.38;;;;;;;-0.84;85.57;96329.66;6298722;22;20392;-59
2022/03/02 07:53:26;;;;;;;22.65;18.70;;;;;;;-0.75;85.99;96337.09;6299799;22;20032;-60
2022/03/02 07:55:53;;;;;;;19.38;16.85;;;;;;;-0.75;85.91;96330.16;6295511;22;20003;-60
2022/03/02 07:58:19;;;;;;;24.90;18.52;;;;;;;-0.65;85.53;96330.66;6271381;22;20011;-60
2022/03/02 08:00:48;;;;;;;17.92;15.55;;;;;;;-0.55;85.88;96336.34;6298858;22;20008;-60
2022/03/02 08:03:15;;;;;;;16.20;13.98;;;;;;;-0.45;85.54;96331.66;6297993;22;20004;-60
2022/03/02 08:05:43;;;;;;;19.35;16.60;;;;;;;-0.32;85.03;96343.22;6297866;22;20006;-60
2022/03/02 08:08:10;;;;;;;16.73;13.80;;;;;;;0.02;84.07;96340.22;6298675;22;20056;-60
2022/03/02 08:10:36;;;;;;;17.02;15.23;;;;;;;0.40;83.17;96343.00;6298605;22;20515;-60
2022/03/02 08:13:02;;;;;;;19.77;15.40;;;;;;;0.92;82.00;96342.56;6299846;22;20000;-60
2022/03/02 08:15:28;;;;;;;17.52;14.10;;;;;;;1.55;79.41;96335.44;6299873;22;20004;-60
2022/03/02 08:17:55;;;;;;;20.45;14.82;;;;;;;1.89;77.29;96338.22;6299722;22;20050;-60
2022/03/02 08:20:20;;;;;;;14.30;12.77;;;;;;;2.13;76.90;96342.25;6299919;22;20010;-59
2022/03/02 08:22:51;;;;;;;17.90;13.68;;;;;;;2.40;74.92;96334.00;6299186;22;20003;-59
2022/03/02 08:25:20;;;;;;;16.92;14.98;;;;;;;2.65;74.08;96327.63;6248097;22;20111;-53
2022/03/02 08:27:46;;;;;;;19.70;14.57;;;;;;;2.51;74.30;96336.09;6274132;22;20458;-53
2022/03/02 08:30:13;;;;;;;17.63;14.20;;;;;;;2.47;74.83;96331.13;6300137;22;20011;-52
2022/03/02 08:32:46;;;;;;;15.50;12.95;;;;;;;2.64;75.03;96328.50;6300293;22;20498;-50
2022/03/02 08:35:12;;;;;;;13.65;9.88;;;;;;;2.74;74.84;96328.88;6299845;22;20004;-53
2022/03/02 08:37:40;;;;;;;16.42;11.80;;;;;;;2.80;73.72;96325.13;6298857;22;20011;-51
2022/03/02 08:40:07;;;;;;;26.63;16.25;;;;;;;3.17;73.84;96322.38;6299558;22;20059;-52
2022/03/02 08:42:33;;;;;;;18.63;14.10;;;;;;;3.66;72.09;96325.00;6299645;22;20085;-53
2022/03/02 08:44:58;;;;;;;24.48;14.60;;;;;;;4.27;70.46;96316.44;6300404;22;20069;-50
2022/03/02 08:47:24;;;;;;;21.60;13.93;;;;;;;4.75;68.45;96312.81;6299823;22;20003;-54
2022/03/02 08:49:54;;;;;;;20.95;12.70;;;;;;;5.14;66.65;96320.03;6299455;22;20003;-54
2022/03/02 08:52:25;;;;;;;27.15;16.48;;;;;;;5.50;65.20;96317.03;6300654;22;20003;-55
2022/03/02 08:54:51;;;;;;;20.02;16.13;;;;;;;5.71;63.54;96314.84;6300171;22;19995;-54
2022/03/02 08:57:18;;;;;;;16.95;12.77;;;;;;;5.81;62.86;96307.28;6299844;22;20008;-50
2022/03/02 08:59:44;;;;;;;15.15;12.48;;;;;;;5.62;62.95;96313.66;6300739;22;20423;-51
2022/03/02 09:02:10;;;;;;;14.55;11.27;;;;;;;5.62;62.92;96310.22;6300449;22;20031;-50
2022/03/02 09:04:37;;;;;;;13.13;11.05;;;;;;;5.69;61.88;96304.50;6300202;22;20053;-50
2022/03/02 09:07:06;;;;;;;14.82;10.25;;;;;;;5.83;62.48;96308.88;6299149;22;20023;-52
2022/03/02 09:09:32;;;;;;;12.23;10.50;;;;;;;5.93;62.13;96300.44;6299329;22;20086;-50
2022/03/02 09:11:58;;;;;;;10.45;8.75;;;;;;;5.89;64.40;96305.03;6299778;22;20027;-51
2022/03/02 09:14:24;;;;;;;8.77;7.18;;;;;;;5.91;63.34;96305.78;6300094;22;20417;-52
2022/03/02 09:16:50;;;;;;;7.60;6.88;;;;;;;5.93;61.26;96296.06;6299616;22;20168;-51
2022/03/02 09:19:16;;;;;;;7.72;6.75;;;;;;;6.04;61.29;96287.56;6299548;22;20031;-53
2022/03/02 09:21:43;;;;;;;9.32;6.50;;;;;;;6.20;58.71;96291.78;6299979;22;20008;-54
2022/03/02 09:24:11;;;;;;;6.65;6.05;;;;;;;6.37;58.54;96288.06;6297448;22;20334;-53
2022/03/02 09:26:38;;;;;;;9.25;7.68;;;;;;;6.52;57.96;96273.97;6299252;22;19999;-51
2022/03/02 09:29:05;;;;;;;12.05;9.20;;;;;;;6.47;57.10;96278.66;6300425;22;20033;-53
2022/03/02 09:31:33;;;;;;;15.68;9.23;;;;;;;6.72;57.67;96277.00;6298056;22;20008;-49
2022/03/02 09:33:58;;;;;;;13.85;9.90;;;;;;;6.82;57.04;96267.59;6298943;22;20014;-53
2022/03/02 09:36:26;;;;;;;16.70;10.32;;;;;;;7.06;55.72;96272.09;6297094;22;20075;-53
2022/03/02 09:38:52;;;;;;;10.68;9.55;;;;;;;7.33;55.28;96260.63;6297651;22;20007;-50
2022/03/02 09:41:27;;;;;;;11.35;9.68;;;;;;;7.35;53.70;96263.16;6299237;22;20059;-52
2022/03/02 09:43:57;;;;;;;11.52;9.02;;;;;;;7.62;54.11;96255.09;6298814;22;20011;-49
2022/03/02 09:46:31;;;;;;;10.98;9.30;;;;;;;7.98;52.63;96249.97;6299219;22;20014;-52
2022/03/02 09:49:04;;;;;;;13.77;9.02;;;;;;;8.61;52.07;96244.47;6299831;22;20047;-52
2022/03/02 09:51:31;;;;;;;12.93;9.35;;;;;;;8.84;51.20;96242.72;6299454;22;20003;-51
2022/03/02 09:53:58;;;;;;;10.75;8.85;;;;;;;8.96;49.72;96235.69;6299397;22;19999;-51
2022/03/02 09:56:25;;;;;;;11.30;10.18;;;;;;;9.04;50.47;96242.97;6296695;22;20010;-52
2022/03/02 09:58:52;;;;;;;13.60;9.73;;;;;;;9.28;49.95;96234.13;6271850;22;20015;-54
2022/03/02 10:01:23;;;;;;;11.38;10.15;;;;;;;9.38;48.61;96235.06;6298379;22;20499;-54
2022/03/02 10:03:50;;;;;;;12.73;8.68;;;;;;;9.65;48.19;96227.75;6299353;22;20007;-50
2022/03/02 10:06:20;;;;;;;13.02;9.73;;;;;;;9.71;47.72;96220.22;6299780;22;20070;-48
2022/03/02 10:08:48;;;;;;;14.00;9.43;;;;;;;9.44;47.44;96229.34;6295862;22;20434;-54
2022/03/02 10:11:19;;;;;;;12.23;9.05;;;;;;;9.64;46.64;96228.72;6298711;22;19999;-54
2022/03/02 10:13:45;;;;;;;8.93;8.02;;;;;;;10.03;46.33;96219.38;6299615;22;20010;-50
2022/03/02 10:16:24;;;;;;;10.30;8.50;;;;;;;10.11;45.45;96220.56;6299268;22;20003;-48
2022/03/02 10:18:55;;;;;;;12.98;8.85;;;;;;;10.14;46.89;96213.22;6297919;22;20010;-49
2022/03/02 10:21:27;;;;;;;13.23;8.63;;;;;;;10.18;46.00;96203.31;6298624;22;20079;-51
2022/03/02 10:24:02;;;;;;;9.70;8.15;;;;;;;10.24;45.75;96210.69;6298626;22;20003;-49
2022/03/02 10:26:31;;;;;;;10.93;8.00;;;;;;;10.25;45.41;96217.59;6295933;22;19999;-54
2022/03/02 10:29:16;;;;;;;12.10;8.60;;;;;;;10.18;45.17;96206.78;6299654;22;20006;-54
2022/03/02 10:31:58;;;;;;;10.88;8.82;;;;;;;10.67;45.06;96200.19;6299351;22;20010;-53
2022/03/02 10:34:26;;;;;;;12.65;8.43;;;;;;;10.79;44.64;96196.53;6298213;22;20003;-50
2022/03/02 10:37:23;;;;;;;11.40;8.75;;;;;;;10.96;43.81;96202.97;6298276;22;20020;-53
2022/03/02 10:39:51;;;;;;;12.82;8.57;;;;;;;11.08;43.86;96190.53;6281518;22;20021;-51
2022/03/02 10:42:41;;;;;;;10.98;8.88;;;;;;;11.02;44.30;96193.72;6299227;22;20007;-50
2022/03/02 10:45:20;;;;;;;9.68;8.52;;;;;;;11.40;43.87;96186.91;6298144;22;20388;-52
2022/03/02 10:47:55;;;;;;;10.38;9.15;;;;;;;11.18;44.32;96175.59;6298480;22;20470;-54
2022/03/02 10:50:22;;;;;;;13.25;10.13;;;;;;;11.79;42.85;96180.00;6300387;22;20011;-52
2022/03/02 10:52:48;;;;;;;12.10;8.32;;;;;;;12.06;41.41;96166.16;6300030;22;20003;-53
2022/03/02 10:55:13;;;;;;;15.70;9.30;;;;;;;12.23;40.23;96164.63;6298179;22;20335;-53
2022/03/02 10:57:39;;;;;;;12.50;10.57;;;;;;;11.78;41.67;96162.53;6298170;22;19999;-53
2022/03/02 11:00:14;;;;;;;13.70;9.90;;;;;;;11.86;40.77;96160.88;6299770;22;20079;-51
2022/03/02 11:02:42;;;;;;;9.67;8.23;;;;;;;12.65;39.47;96168.75;6297897;22;19999;-54
2022/03/02 11:05:16;;;;;;;11.43;8.80;;;;;;;12.41;39.92;96159.47;6298103;22;20040;-50
2022/03/02 11:07:42;;;;;;;12.70;9.35;;;;;;;12.93;37.80;96157.34;6297881;22;20082;-52
2022/03/02 11:10:10;;;;;;;15.05;8.77;;;;;;;13.13;38.07;96153.66;6294763;22;20088;-51
2022/03/02 11:12:41;;;;;;;11.50;8.23;;;;;;;13.18;37.74;96156.72;6269230;22;20014;-53
2022/03/02 11:15:07;;;;;;;15.15;9.02;;;;;;;13.58;38.51;96151.22;6296873;22;20577;-53
2022/03/02 11:17:34;;;;;;;10.23;7.82;;;;;;;14.00;37.79;96145.31;6297346;22;20064;-54
2022/03/02 11:20:09;;;;;;;9.25;8.30;;;;;;;14.15;36.17;96147.44;6297762;22;20494;-51
2022/03/02 11:22:34;;;;;;;12.98;8.88;;;;;;;14.08;36.52;96141.91;6297897;22;20010;-54